Time;durP1;ratioP1;P1;durP2;ratioP2;P2;SDS_P1;SDS_P2;PMS_P1;PMS_P2;Temp;Humidity;BMP_temperature;BMP_pressure;BME280_temperature;BME280_humidity;BME280_pressure;Samples;Min_cycle;Max_cycle;Signal;HPM_P1;HPM_P2
2022/04/05 00:01:15;;;;;;;;;;;;;;;;;;2214104;67;1183;-69
2022/04/05 00:03:49;;;;;;;;;;;;;;;;;;2213114;59;1151;-70
2022/04/05 00:06:22;;;;;;;;;;;;;;;;;;2213851;67;1083;-69
2022/04/05 00:08:58;;;;;;;;;;;;;;;;;;2213393;60;1965;-70
2022/04/05 00:11:31;;;;;;;;;;;;;;;;;;2213276;67;1114;-70
2022/04/05 00:14:05;;;;;;;;;;;;;;;;;;2213759;59;1263;-69
2022/04/05 00:16:38;;;;;;;;;;;;;;;;;;2212933;67;1182;-70
2022/04/05 00:19:11;;;;;;;;;;;;;;;;;;2213713;59;2206;-69
2022/04/05 00:21:45;;;;;;;;;;;;;;;;;;2213755;67;1105;-69
2022/04/05 00:24:21;;;;;;;;;;;;;;;;;;2213146;60;1330;-69
2022/04/05 00:26:55;;;;;;;;;;;;;;;;;;2213637;59;1939;-70
2022/04/05 00:29:28;;;;;;;;;;;;;;;;;;2213729;67;1321;-69
2022/04/05 00:32:01;;;;;;;;;;;;;;;;;;2214103;67;1207;-69
2022/04/05 00:34:34;;;;;;;;;;;;;;;;;;2213438;59;1296;-69
2022/04/05 00:37:08;;;;;;;;;;;;;;;;;;2216820;53;3430;-70
2022/04/05 00:39:45;;;;;;;;;;;;;;;;;;2206958;59;1914;-69
2022/04/05 00:42:18;;;;;;;;;;;;;;;;;;2209173;59;1100;-70
2022/04/05 00:44:51;;;;;;;;;;;;;;;;;;2209842;59;1236;-68
2022/04/05 00:47:25;;;;;;;;;;;;;;;;;;2209690;59;1932;-68
2022/04/05 00:49:58;;;;;;;;;;;;;;;;;;2209336;59;1337;-68
2022/04/05 00:52:31;;;;;;;;;;;;;;;;;;2209413;59;1413;-67
2022/04/05 00:55:07;;;;;;;;;;;;;;;;;;2208259;60;1172;-67
2022/04/05 00:57:42;;;;;;;;;;;;;;;;;;2208937;59;1623;-67
2022/04/05 01:00:16;;;;;;;;;;;;;;;;;;2209565;67;1094;-67
2022/04/05 01:02:50;;;;;;;;;;;;;;;;;;2210321;67;1156;-68
2022/04/05 01:05:25;;;;;;;;;;;;;;;;;;2208857;59;1117;-67
2022/04/05 01:08:02;;;;;;;;;;;;;;;;;;2209786;67;1932;-68
2022/04/05 01:10:38;;;;;;;;;;;;;;;;;;2209411;59;1326;-67
2022/04/05 01:13:11;;;;;;;;;;;;;;;;;;2207782;59;1244;-68
2022/04/05 01:15:44;;;;;;;;;;;;;;;;;;2208547;67;1121;-68
2022/04/05 01:18:17;;;;;;;;;;;;;;;;;;2208239;59;2413;-67
2022/04/05 01:20:51;;;;;;;;;;;;;;;;;;2203798;67;1510;-68
2022/04/05 01:23:24;;;;;;;;;;;;;;;;;;2209415;59;1199;-67
2022/04/05 01:26:00;;;;;;;;;;;;;;;;;;2209275;59;1406;-67
2022/04/05 01:28:33;;;;;;;;;;;;;;;;;;2208566;59;1929;-67
2022/04/05 01:31:06;;;;;;;;;;;;;;;;;;2209420;59;1086;-67
2022/04/05 01:33:40;;;;;;;;;;;;;;;;;;2205140;59;1277;-67
2022/04/05 01:36:22;;;;;;;;;;;;;;;;;;2208945;67;1115;-67
2022/04/05 01:38:55;;;;;;;;;;;;;;;;;;2209748;59;1762;-68
2022/04/05 01:41:31;;;;;;;;;;;;;;;;;;2212451;67;1251;-67
2022/04/05 01:44:05;;;;;;;;;;;;;;;;;;2212050;59;1168;-68
2022/04/05 01:46:38;;;;;;;;;;;;;;;;;;2212468;67;1209;-67
2022/04/05 01:49:13;;;;;;;;;;;;;;;;;;2210841;59;1925;-67
2022/04/05 01:51:47;;;;;;;;;;;;;;;;;;2212773;59;1515;-68
2022/04/05 01:54:20;;;;;;;;;;;;;;;;;;2213315;67;1084;-67
2022/04/05 01:56:56;;;;;;;;;;;;;;;;;;2212146;67;1193;-67
2022/04/05 01:59:30;;;;;;;;;;;;;;;;;;2210907;59;1676;-67
2022/04/05 02:02:05;;;;;;;;;;;;;;;;;;2214627;67;1243;-67
2022/04/05 02:04:39;;;;;;;;;;;;;;;;;;2212383;59;1096;-67
2022/04/05 02:07:13;;;;;;;;;;;;;;;;;;2212856;59;4915;-68
2022/04/05 02:09:47;;;;;;;;;;;;;;;;;;2210030;67;1923;-67
2022/04/05 02:12:23;;;;;;;;;;;;;;;;;;2213904;59;1275;-67
2022/04/05 02:14:56;;;;;;;;;;;;;;;;;;2212673;67;1160;-68
2022/04/05 02:17:29;;;;;;;;;;;;;;;;;;2212118;59;2018;-67
2022/04/05 02:20:03;;;;;;;;;;;;;;;;;;2210871;59;1901;-67
2022/04/05 02:22:36;;;;;;;;;;;;;;;;;;2211930;59;1236;-68
2022/04/05 02:25:09;;;;;;;;;;;;;;;;;;2209782;59;1207;-67
2022/04/05 02:27:47;;;;;;;;;;;;;;;;;;2208857;67;1987;-67
2022/04/05 02:30:20;;;;;;;;;;;;;;;;;;2211950;67;1152;-67
2022/04/05 02:32:53;;;;;;;;;;;;;;;;;;2211393;59;1314;-68
2022/04/05 02:35:27;;;;;;;;;;;;;;;;;;2212952;67;1106;-68
2022/04/05 02:38:01;;;;;;;;;;;;;;;;;;2211675;59;1693;-67
2022/04/05 02:40:34;;;;;;;;;;;;;;;;;;2212044;59;1097;-67
2022/04/05 02:43:10;;;;;;;;;;;;;;;;;;2212425;67;1083;-67
2022/04/05 02:45:43;;;;;;;;;;;;;;;;;;2212395;67;1377;-67
2022/04/05 02:48:16;;;;;;;;;;;;;;;;;;2210677;59;1989;-68
2022/04/05 02:50:49;;;;;;;;;;;;;;;;;;2211004;59;1294;-68
2022/04/05 02:53:22;;;;;;;;;;;;;;;;;;2212216;67;1203;-68
2022/04/05 02:55:56;;;;;;;;;;;;;;;;;;2211329;59;1658;-67
2022/04/05 02:58:31;;;;;;;;;;;;;;;;;;2209355;59;1965;-67
2022/04/05 03:01:05;;;;;;;;;;;;;;;;;;2207829;59;1375;-68
2022/04/05 03:03:38;;;;;;;;;;;;;;;;;;2204492;59;2310;-68
2022/04/05 03:06:14;;;;;;;;;;;;;;;;;;2210542;67;1342;-67
2022/04/05 03:08:47;;;;;;;;;;;;;;;;;;2212368;67;1964;-68
2022/04/05 03:11:21;;;;;;;;;;;;;;;;;;2211252;59;2538;-68
2022/04/05 03:13:57;;;;;;;;;;;;;;;;;;2208355;59;2605;-68
2022/04/05 03:16:30;;;;;;;;;;;;;;;;;;2212686;67;1305;-68
2022/04/05 03:19:03;;;;;;;;;;;;;;;;;;2211503;59;1974;-70
2022/04/05 03:21:36;;;;;;;;;;;;;;;;;;2212754;59;1113;-70
2022/04/05 03:24:09;;;;;;;;;;;;;;;;;;2211634;59;1144;-70
2022/04/05 03:26:43;;;;;;;;;;;;;;;;;;2212447;67;1171;-70
2022/04/05 03:29:18;;;;;;;;;;;;;;;;;;2212691;59;1932;-70
2022/04/05 03:31:52;;;;;;;;;;;;;;;;;;2212207;59;1250;-70
2022/04/05 03:34:25;;;;;;;;;;;;;;;;;;2212023;59;1129;-70
2022/04/05 03:36:58;;;;;;;;;;;;;;;;;;2213443;59;1263;-70
2022/04/05 03:39:31;;;;;;;;;;;;;;;;;;2212554;59;1954;-70
2022/04/05 03:42:04;;;;;;;;;;;;;;;;;;2211252;67;1196;-70
2022/04/05 03:44:40;;;;;;;;;;;;;;;;;;2210588;67;1243;-70
2022/04/05 03:47:13;;;;;;;;;;;;;;;;;;2210877;59;1285;-69
2022/04/05 03:49:46;;;;;;;;;;;;;;;;;;2211980;59;2000;-68
2022/04/05 03:52:20;;;;;;;;;;;;;;;;;;2213222;59;1254;-67
2022/04/05 03:54:53;;;;;;;;;;;;;;;;;;2214721;59;1189;-67
2022/04/05 03:57:26;;;;;;;;;;;;;;;;;;2213516;59;1502;-67
2022/04/05 04:00:02;;;;;;;;;;;;;;;;;;2212409;67;1206;-68
2022/04/05 04:02:36;;;;;;;;;;;;;;;;;;2211677;67;1504;-67
2022/04/05 04:05:10;;;;;;;;;;;;;;;;;;2214179;59;1215;-68
2022/04/05 04:07:43;;;;;;;;;;;;;;;;;;2214193;67;1234;-68
2022/04/05 04:10:16;;;;;;;;;;;;;;;;;;2213033;67;1940;-67
2022/04/05 04:12:49;;;;;;;;;;;;;;;;;;2211892;59;2261;-68
2022/04/05 04:15:25;;;;;;;;;;;;;;;;;;2213002;59;2233;-68
2022/04/05 04:17:58;;;;;;;;;;;;;;;;;;2213420;59;2031;-68
2022/04/05 04:20:31;;;;;;;;;;;;;;;;;;2210947;59;2224;-67
2022/04/05 04:23:04;;;;;;;;;;;;;;;;;;2211045;67;1106;-67
2022/04/05 04:25:37;;;;;;;;;;;;;;;;;;2211564;59;1136;-67
2022/04/05 04:28:11;;;;;;;;;;;;;;;;;;2212217;67;1981;-67
2022/04/05 04:30:47;;;;;;;;;;;;;;;;;;2212063;67;1270;-68
2022/04/05 04:33:20;;;;;;;;;;;;;;;;;;2211063;59;1422;-68
2022/04/05 04:35:53;;;;;;;;;;;;;;;;;;2212289;59;1790;-67
2022/04/05 04:38:26;;;;;;;;;;;;;;;;;;2211262;59;1608;-67
2022/04/05 04:41:00;;;;;;;;;;;;;;;;;;2211252;67;1101;-67
2022/04/05 04:43:33;;;;;;;;;;;;;;;;;;2211720;59;1113;-71
2022/04/05 04:46:09;;;;;;;;;;;;;;;;;;2211223;67;1193;-70
2022/04/05 04:48:43;;;;;;;;;;;;;;;;;;2211870;67;1937;-70
2022/04/05 04:51:16;;;;;;;;;;;;;;;;;;2207968;67;1254;-70
2022/04/05 04:53:49;;;;;;;;;;;;;;;;;;2210809;67;1077;-70
2022/04/05 04:56:22;;;;;;;;;;;;;;;;;;2212119;59;1832;-71
2022/04/05 04:58:56;;;;;;;;;;;;;;;;;;2211959;59;1582;-70
2022/04/05 05:01:31;;;;;;;;;;;;;;;;;;2211771;67;1218;-70
2022/04/05 05:04:05;;;;;;;;;;;;;;;;;;2209678;59;1712;-70
2022/04/05 05:06:38;;;;;;;;;;;;;;;;;;2211301;59;1100;-70
2022/04/05 05:09:11;;;;;;;;;;;;;;;;;;2210934;59;1932;-70
2022/04/05 05:11:44;;;;;;;;;;;;;;;;;;2210967;59;1362;-70
2022/04/05 05:14:17;;;;;;;;;;;;;;;;;;2209101;59;2648;-70
2022/04/05 05:16:53;;;;;;;;;;;;;;;;;;2208619;59;2153;-70
2022/04/05 05:19:26;;;;;;;;;;;;;;;;;;2208298;59;2497;-70
2022/04/05 05:22:00;;;;;;;;;;;;;;;;;;2210055;59;1831;-70
2022/04/05 05:24:33;;;;;;;;;;;;;;;;;;2209236;67;1117;-68
2022/04/05 05:27:06;;;;;;;;;;;;;;;;;;2211578;59;1604;-68
2022/04/05 05:29:39;;;;;;;;;;;;;;;;;;2209679;67;1995;-68
2022/04/05 05:32:15;;;;;;;;;;;;;;;;;;2211608;59;1222;-68
2022/04/05 05:34:48;;;;;;;;;;;;;;;;;;2211968;59;1195;-68
2022/04/05 05:37:22;;;;;;;;;;;;;;;;;;2211264;59;1625;-68
2022/04/05 05:39:55;;;;;;;;;;;;;;;;;;2210674;67;1230;-68
2022/04/05 05:42:28;;;;;;;;;;;;;;;;;;2212324;59;1130;-68
2022/04/05 05:45:01;;;;;;;;;;;;;;;;;;2212431;59;1055;-69
2022/04/05 05:47:37;;;;;;;;;;;;;;;;;;2211763;67;1222;-68
2022/04/05 05:50:12;;;;;;;;;;;;;;;;;;2210811;59;1990;-68
2022/04/05 05:52:46;;;;;;;;;;;;;;;;;;2212173;59;1235;-68
2022/04/05 05:55:20;;;;;;;;;;;;;;;;;;2211054;59;1540;-68
2022/04/05 05:57:53;;;;;;;;;;;;;;;;;;2212432;59;1766;-68
2022/04/05 06:00:27;;;;;;;;;;;;;;;;;;2210736;59;1065;-69
2022/04/05 06:03:04;;;;;;;;;;;;;;;;;;2211509;59;1594;-69
2022/04/05 06:05:37;;;;;;;;;;;;;;;;;;2210550;59;1235;-69
2022/04/05 06:08:10;;;;;;;;;;;;;;;;;;2211582;59;1774;-68
2022/04/05 06:10:43;;;;;;;;;;;;;;;;;;2211971;59;1987;-68
2022/04/05 06:13:16;;;;;;;;;;;;;;;;;;2211262;59;2077;-68
2022/04/05 06:15:49;;;;;;;;;;;;;;;;;;2207513;59;1661;-68
2022/04/05 06:18:25;;;;;;;;;;;;;;;;;;2210437;59;2057;-68
2022/04/05 06:20:58;;;;;;;;;;;;;;;;;;2210869;59;1170;-68
2022/04/05 06:23:31;;;;;;;;;;;;;;;;;;2210470;67;1057;-68
2022/04/05 06:26:05;;;;;;;;;;;;;;;;;;2209235;59;1714;-69
2022/04/05 06:28:38;;;;;;;;;;;;;;;;;;2210709;67;1297;-68
2022/04/05 06:31:11;;;;;;;;;;;;;;;;;;2213224;67;1945;-68
2022/04/05 06:33:47;;;;;;;;;;;;;;;;;;2212214;67;1194;-68
2022/04/05 06:36:20;;;;;;;;;;;;;;;;;;2208699;59;1170;-68
2022/04/05 06:38:53;;;;;;;;;;;;;;;;;;2214078;53;3596;-70
2022/04/05 06:41:26;;;;;;;;;;;;;;;;;;2213340;59;1108;-69
2022/04/05 06:43:59;;;;;;;;;;;;;;;;;;2214728;59;1184;-70
2022/04/05 06:46:32;;;;;;;;;;;;;;;;;;2214519;59;1169;-69
2022/04/05 06:49:09;;;;;;;;;;;;;;;;;;2214018;67;1935;-70
2022/04/05 06:51:42;;;;;;;;;;;;;;;;;;2212328;59;1631;-70
2022/04/05 06:54:15;;;;;;;;;;;;;;;;;;2212020;67;1225;-70
2022/04/05 06:56:48;;;;;;;;;;;;;;;;;;2212630;59;1438;-70
2022/04/05 06:59:21;;;;;;;;;;;;;;;;;;2212644;59;1686;-70
2022/04/05 07:01:54;;;;;;;;;;;;;;;;;;2211825;67;1182;-69
2022/04/05 07:04:31;;;;;;;;;;;;;;;;;;2213929;67;1250;-69
2022/04/05 07:07:04;;;;;;;;;;;;;;;;;;2212593;59;1799;-69
2022/04/05 07:09:37;;;;;;;;;;;;;;;;;;2212708;59;1932;-70
2022/04/05 07:12:11;;;;;;;;;;;;;;;;;;2212950;59;1684;-69
2022/04/05 07:14:44;;;;;;;;;;;;;;;;;;2212533;59;1262;-69
2022/04/05 07:17:17;;;;;;;;;;;;;;;;;;2213181;59;2110;-70
2022/04/05 07:19:53;;;;;;;;;;;;;;;;;;2213454;59;2087;-70
2022/04/05 07:22:26;;;;;;;;;;;;;;;;;;2212150;59;2026;-69
2022/04/05 07:25:00;;;;;;;;;;;;;;;;;;2212481;59;1764;-69
2022/04/05 07:27:33;;;;;;;;;;;;;;;;;;2212375;59;1779;-69
2022/04/05 07:30:06;;;;;;;;;;;;;;;;;;2211305;67;1984;-69
2022/04/05 07:32:40;;;;;;;;;;;;;;;;;;2212933;59;1887;-69
2022/04/05 07:35:17;;;;;;;;;;;;;;;;;;2211856;59;1595;-69
2022/04/05 07:37:51;;;;;;;;;;;;;;;;;;2211517;58;2197;-70
2022/04/05 07:40:27;;;;;;;;;;;;;;;;;;2216222;59;1208;-70
2022/04/05 07:43:00;;;;;;;;;;;;;;;;;;2216042;58;1065;-70
2022/04/05 07:45:33;;;;;;;;;;;;;;;;;;2216699;59;2358;-70
2022/04/05 07:48:08;;;;;;;;;;;;;;;;;;2216736;59;2679;-70
2022/04/05 07:50:44;;;;;;;;;;;;;;;;;;2216089;66;1919;-70
2022/04/05 07:53:17;;;;;;;;;;;;;;;;;;2216387;58;1614;-70
2022/04/05 07:55:50;;;;;;;;;;;;;;;;;;2216264;58;1825;-70
2022/04/05 07:58:24;;;;;;;;;;;;;;;;;;2216711;58;1767;-69
2022/04/05 08:00:57;;;;;;;;;;;;;;;;;;2217311;59;1136;-70
2022/04/05 08:03:30;;;;;;;;;;;;;;;;;;2216554;58;1786;-70
2022/04/05 08:06:07;;;;;;;;;;;;;;;;;;2217651;66;1122;-70
2022/04/05 08:08:40;;;;;;;;;;;;;;;;;;2217528;58;1596;-70
2022/04/05 08:11:13;;;;;;;;;;;;;;;;;;2217330;58;2085;-69
2022/04/05 08:13:46;;;;;;;;;;;;;;;;;;2217512;58;1257;-70
2022/04/05 08:16:19;;;;;;;;;;;;;;;;;;2217478;58;1676;-70
2022/04/05 08:18:53;;;;;;;;;;;;;;;;;;2217413;58;2085;-70
2022/04/05 08:21:30;;;;;;;;;;;;;;;;;;2214436;58;1313;-70
2022/04/05 08:24:04;;;;;;;;;;;;;;;;;;2215551;58;1213;-69
2022/04/05 08:26:37;;;;;;;;;;;;;;;;;;2216230;58;1737;-69
2022/04/05 08:29:10;;;;;;;;;;;;;;;;;;2216655;58;1635;-69
2022/04/05 08:31:43;;;;;;;;;;;;;;;;;;2212343;66;1975;-69
2022/04/05 08:34:18;;;;;;;;;;;;;;;;;;2216692;58;1101;-70
2022/04/05 08:36:55;;;;;;;;;;;;;;;;;;2216157;66;1102;-70
2022/04/05 08:39:29;;;;;;;;;;;;;;;;;;2216338;58;1898;-70
2022/04/05 08:42:02;;;;;;;;;;;;;;;;;;2217581;66;1125;-70
2022/04/05 08:44:35;;;;;;;;;;;;;;;;;;2215515;59;1111;-70
2022/04/05 08:47:10;;;;;;;;;;;;;;;;;;2216589;59;2637;-69
2022/04/05 08:49:45;;;;;;;;;;;;;;;;;;2215750;59;2697;-70
2022/04/05 08:52:21;;;;;;;;;;;;;;;;;;2215510;59;1172;-70
2022/04/05 08:54:55;;;;;;;;;;;;;;;;;;2217121;66;1025;-70
2022/04/05 08:57:28;;;;;;;;;;;;;;;;;;2217709;58;1782;-69
2022/04/05 09:00:02;;;;;;;;;;;;;;;;;;2216874;58;1281;-70
2022/04/05 09:02:36;;;;;;;;;;;;;;;;;;2216186;59;1659;-70
2022/04/05 09:05:09;;;;;;;;;;;;;;;;;;2215955;59;1227;-70
2022/04/05 09:07:47;;;;;;;;;;;;;;;;;;2212317;66;1246;-70
2022/04/05 09:10:20;;;;;;;;;;;;;;;;;;2216867;58;1932;-70
2022/04/05 09:12:54;;;;;;;;;;;;;;;;;;2216762;58;1283;-70
2022/04/05 09:15:28;;;;;;;;;;;;;;;;;;2215722;66;1055;-69
2022/04/05 09:18:01;;;;;;;;;;;;;;;;;;2215075;58;2001;-70
2022/04/05 09:20:45;;;;;;;;;;;;;;;;;;2216808;58;2258;-70
2022/04/05 09:23:29;;;;;;;;;;;;;;;;;;2216607;59;1709;-70
2022/04/05 09:26:04;;;;;;;;;;;;;;;;;;2218171;66;1073;-70
2022/04/05 09:28:38;;;;;;;;;;;;;;;;;;2217741;66;1136;-70
2022/04/05 09:31:12;;;;;;;;;;;;;;;;;;2215433;66;1981;-70
2022/04/05 09:34:00;;;;;;;;;;;;;;;;;;2217408;66;1095;-70
2022/04/05 09:36:35;;;;;;;;;;;;;;;;;;2216984;58;1243;-70
2022/04/05 09:39:16;;;;;;;;;;;;;;;;;;2217824;58;1778;-70
2022/04/05 09:41:52;;;;;;;;;;;;;;;;;;2217857;58;1687;-70
2022/04/05 09:44:29;;;;;;;;;;;;;;;;;;2216630;59;1706;-70
2022/04/05 09:47:06;;;;;;;;;;;;;;;;;;2217105;59;2485;-70
2022/04/05 09:49:39;;;;;;;;;;;;;;;;;;2216513;59;2513;-71
2022/04/05 09:52:26;;;;;;;;;;;;;;;;;;2216647;58;1929;-70
2022/04/05 09:55:11;;;;;;;;;;;;;;;;;;2216961;66;1250;-70
2022/04/05 09:57:46;;;;;;;;;;;;;;;;;;2216601;58;1955;-70
2022/04/05 10:00:20;;;;;;;;;;;;;;;;;;2217056;66;1123;-70
2022/04/05 10:03:04;;;;;;;;;;;;;;;;;;2215609;58;1639;-70
2022/04/05 10:05:38;;;;;;;;;;;;;;;;;;2217022;60;1112;-70
2022/04/05 10:08:11;;;;;;;;;;;;;;;;;;2216995;66;1261;-70
2022/04/05 10:10:48;;;;;;;;;;;;;;;;;;2215466;66;1967;-70
2022/04/05 10:13:21;;;;;;;;;;;;;;;;;;2213408;59;1303;-70
2022/04/05 10:15:54;;;;;;;;;;;;;;;;;;2216829;59;1148;-70
2022/04/05 10:18:29;;;;;;;;;;;;;;;;;;2217178;58;2239;-70
2022/04/05 10:21:04;;;;;;;;;;;;;;;;;;2217114;66;1064;-70
2022/04/05 10:23:37;;;;;;;;;;;;;;;;;;2216748;66;1171;-70
2022/04/05 10:26:16;;;;;;;;;;;;;;;;;;2218115;66;1098;-70
2022/04/05 10:28:50;;;;;;;;;;;;;;;;;;2217596;58;1790;-70
2022/04/05 10:31:27;;;;;;;;;;;;;;;;;;2217992;66;1933;-70
2022/04/05 10:34:05;;;;;;;;;;;;;;;;;;2216251;66;1251;-70
2022/04/05 10:36:38;;;;;;;;;;;;;;;;;;2216981;66;1107;-70
2022/04/05 10:39:18;;;;;;;;;;;;;;;;;;2216511;58;1614;-70
2022/04/05 10:42:06;;;;;;;;;;;;;;;;;;2218097;58;1275;-70
2022/04/05 10:44:43;;;;;;;;;;;;;;;;;;2217827;59;1160;-70
2022/04/05 10:47:16;;;;;;;;;;;;;;;;;;2217648;59;1220;-70
2022/04/05 10:49:51;;;;;;;;;;;;;;;;;;2216084;59;2407;-70
2022/04/05 10:52:27;;;;;;;;;;;;;;;;;;2216070;59;2134;-70
2022/04/05 10:55:11;;;;;;;;;;;;;;;;;;2216119;59;1101;-70
2022/04/05 10:57:46;;;;;;;;;;;;;;;;;;2217412;58;1845;-70
2022/04/05 11:00:28;;;;;;;;;;;;;;;;;;2217779;59;1521;-70
2022/04/05 11:03:06;;;;;;;;;;;;;;;;;;2217362;58;1681;-70
2022/04/05 11:05:42;;;;;;;;;;;;;;;;;;2216325;66;1117;-70
2022/04/05 11:08:16;;;;;;;;;;;;;;;;;;2216204;58;1781;-70
2022/04/05 11:10:53;;;;;;;;;;;;;;;;;;2218056;66;1976;-70
2022/04/05 11:13:34;;;;;;;;;;;;;;;;;;2216854;58;1277;-71
2022/04/05 11:16:14;;;;;;;;;;;;;;;;;;2215240;66;1300;-70
2022/04/05 11:18:47;;;;;;;;;;;;;;;;;;2217374;58;2025;-70
2022/04/05 11:21:20;;;;;;;;;;;;;;;;;;2216110;66;1324;-70
2022/04/05 11:23:54;;;;;;;;;;;;;;;;;;2217217;66;1080;-70
2022/04/05 11:26:33;;;;;;;;;;;;;;;;;;2217013;59;1163;-70
2022/04/05 11:29:20;;;;;;;;;;;;;;;;;;2217186;66;1291;-70
2022/04/05 11:32:10;;;;;;;;;;;;;;;;;;2217237;66;1937;-70
2022/04/05 11:34:48;;;;;;;;;;;;;;;;;;2216883;58;1771;-70
2022/04/05 11:37:34;;;;;;;;;;;;;;;;;;2217112;66;1273;-70
2022/04/05 11:40:10;;;;;;;;;;;;;;;;;;2216746;66;1185;-70
2022/04/05 11:42:43;;;;;;;;;;;;;;;;;;2215826;58;1183;-71
2022/04/05 11:45:17;;;;;;;;;;;;;;;;;;2216589;66;1180;-69
2022/04/05 11:47:54;;;;;;;;;;;;;;;;;;2216880;66;1231;-70
2022/04/05 11:50:30;;;;;;;;;;;;;;;;;;2216230;58;2509;-69
2022/04/05 11:53:18;;;;;;;;;;;;;;;;;;2217238;59;2504;-70
2022/04/05 11:56:05;;;;;;;;;;;;;;;;;;2216504;58;1640;-69
2022/04/05 11:58:39;;;;;;;;;;;;;;;;;;2216734;58;1768;-70
2022/04/05 12:01:13;;;;;;;;;;;;;;;;;;2217868;59;1647;-69
2022/04/05 12:03:48;;;;;;;;;;;;;;;;;;2216624;58;1733;-70
2022/04/05 12:06:27;;;;;;;;;;;;;;;;;;2217260;66;1155;-70
2022/04/05 12:09:02;;;;;;;;;;;;;;;;;;2216799;66;1167;-69
2022/04/05 12:11:36;;;;;;;;;;;;;;;;;;2217352;59;1978;-70
2022/04/05 12:14:12;;;;;;;;;;;;;;;;;;2217598;58;1682;-70
2022/04/05 12:16:49;;;;;;;;;;;;;;;;;;2216347;58;1158;-70
2022/04/05 12:19:22;;;;;;;;;;;;;;;;;;2217321;58;2326;-70
2022/04/05 12:22:00;;;;;;;;;;;;;;;;;;2218629;66;1067;-70
2022/04/05 12:24:34;;;;;;;;;;;;;;;;;;2215999;59;1723;-70
2022/04/05 12:27:07;;;;;;;;;;;;;;;;;;2217482;66;1076;-70
2022/04/05 12:29:42;;;;;;;;;;;;;;;;;;2217705;66;1300;-70
2022/04/05 12:32:15;;;;;;;;;;;;;;;;;;2217687;66;1935;-69
2022/04/05 12:34:49;;;;;;;;;;;;;;;;;;2217850;66;1080;-70
2022/04/05 12:37:25;;;;;;;;;;;;;;;;;;2217987;58;1307;-71
2022/04/05 12:39:58;;;;;;;;;;;;;;;;;;2198177;53;3642;-70
2022/04/05 12:42:41;;;;;;;;;;;;;;;;;;2195242;59;1173;-69
2022/04/05 12:45:14;;;;;;;;;;;;;;;;;;2196230;67;1261;-70
2022/04/05 12:47:48;;;;;;;;;;;;;;;;;;2196780;59;1256;-70
2022/04/05 12:50:21;;;;;;;;;;;;;;;;;;2198223;59;2263;-69
2022/04/05 12:53:04;;;;;;;;;;;;;;;;;;2196608;59;2593;-69
2022/04/05 12:55:37;;;;;;;;;;;;;;;;;;2197235;59;1117;-70
2022/04/05 12:58:10;;;;;;;;;;;;;;;;;;2200867;59;1668;-70
2022/04/05 13:00:46;;;;;;;;;;;;;;;;;;2193784;67;1824;-69
2022/04/05 13:03:19;;;;;;;;;;;;;;;;;;2197478;59;1200;-70
2022/04/05 13:08:44;;;;;;;;;;;;;;;;;;2201587;67;1211;-70
2022/04/05 13:11:25;;;;;;;;;;;;;;;;;;2200675;59;1933;-70
2022/04/05 13:14:06;;;;;;;;;;;;;;;;;;2196428;59;1266;-70
2022/04/05 13:16:39;;;;;;;;;;;;;;;;;;2201021;67;1102;-70
2022/04/05 13:19:14;;;;;;;;;;;;;;;;;;2193739;59;2592;-69
2022/04/05 13:21:48;;;;;;;;;;;;;;;;;;2203497;67;1097;-70
2022/04/05 13:24:27;;;;;;;;;;;;;;;;;;2198362;59;1262;-70
2022/04/05 13:27:01;;;;;;;;;;;;;;;;;;2198252;67;1059;-69
2022/04/05 13:29:34;;;;;;;;;;;;;;;;;;2201110;67;1251;-70
2022/04/05 13:32:08;;;;;;;;;;;;;;;;;;2194787;59;1952;-69
2022/04/05 13:34:44;;;;;;;;;;;;;;;;;;2194912;67;1109;-69
2022/04/05 13:37:18;;;;;;;;;;;;;;;;;;2197457;59;1285;-70
2022/04/05 13:39:58;;;;;;;;;;;;;;;;;;2193436;59;1594;-70
2022/04/05 13:42:33;;;;;;;;;;;;;;;;;;2199187;67;1165;-70
2022/04/05 13:45:06;;;;;;;;;;;;;;;;;;2196041;67;1092;-70
2022/04/05 13:47:40;;;;;;;;;;;;;;;;;;2196262;59;1175;-70
2022/04/05 13:50:13;;;;;;;;;;;;;;;;;;2196289;59;1617;-69
2022/04/05 13:52:47;;;;;;;;;;;;;;;;;;2198957;59;2497;-70
2022/04/05 13:55:23;;;;;;;;;;;;;;;;;;2196007;59;2169;-70
2022/04/05 13:57:56;;;;;;;;;;;;;;;;;;2196831;59;2161;-70
2022/04/05 14:00:29;;;;;;;;;;;;;;;;;;2195529;60;1345;-69
2022/04/05 14:03:02;;;;;;;;;;;;;;;;;;2195285;59;1711;-69
2022/04/05 14:05:35;;;;;;;;;;;;;;;;;;2195369;59;1778;-69
2022/04/05 14:08:09;;;;;;;;;;;;;;;;;;2198502;67;1237;-70
2022/04/05 14:10:45;;;;;;;;;;;;;;;;;;2199452;59;1670;-70
2022/04/05 14:13:18;;;;;;;;;;;;;;;;;;2195373;59;1924;-70
2022/04/05 14:15:52;;;;;;;;;;;;;;;;;;2198122;67;1259;-70
2022/04/05 14:18:25;;;;;;;;;;;;;;;;;;2198457;59;2150;-69
2022/04/05 14:20:58;;;;;;;;;;;;;;;;;;2195829;59;1166;-69
2022/04/05 14:23:31;;;;;;;;;;;;;;;;;;2197869;67;1179;-69
2022/04/05 14:26:07;;;;;;;;;;;;;;;;;;2200294;59;1111;-69
2022/04/05 14:28:40;;;;;;;;;;;;;;;;;;2196673;67;1239;-69
2022/04/05 14:31:13;;;;;;;;;;;;;;;;;;2195965;67;1251;-70
2022/04/05 14:33:46;;;;;;;;;;;;;;;;;;2198438;67;1940;-69
2022/04/05 14:36:20;;;;;;;;;;;;;;;;;;2199704;67;1243;-69
2022/04/05 14:38:53;;;;;;;;;;;;;;;;;;2205090;59;1764;-69
2022/04/05 14:41:29;;;;;;;;;;;;;;;;;;2197765;59;1457;-70
2022/04/05 14:44:02;;;;;;;;;;;;;;;;;;2196432;59;1837;-70
2022/04/05 14:46:37;;;;;;;;;;;;;;;;;;2195996;67;1140;-69
2022/04/05 14:49:10;;;;;;;;;;;;;;;;;;2195997;59;1425;-69
2022/04/05 14:51:43;;;;;;;;;;;;;;;;;;2195993;59;1941;-69
2022/04/05 14:54:17;;;;;;;;;;;;;;;;;;2198520;59;2644;-69
2022/04/05 14:56:53;;;;;;;;;;;;;;;;;;2197477;67;1277;-69
2022/04/05 14:59:26;;;;;;;;;;;;;;;;;;2199043;59;1743;-70
2022/04/05 15:01:59;;;;;;;;;;;;;;;;;;2195193;59;1895;-69
2022/04/05 15:04:33;;;;;;;;;;;;;;;;;;2197971;59;1275;-69
2022/04/05 15:07:08;;;;;;;;;;;;;;;;;;2195727;59;1692;-70
2022/04/05 15:09:41;;;;;;;;;;;;;;;;;;2196746;67;1344;-69
2022/04/05 15:12:18;;;;;;;;;;;;;;;;;;2196474;59;1920;-69
2022/04/05 15:14:51;;;;;;;;;;;;;;;;;;2199127;67;1329;-69
2022/04/05 15:17:24;;;;;;;;;;;;;;;;;;2196695;59;2011;-70
2022/04/05 15:19:57;;;;;;;;;;;;;;;;;;2197442;59;1802;-69
2022/04/05 15:22:31;;;;;;;;;;;;;;;;;;2196847;67;1306;-69
2022/04/05 15:25:04;;;;;;;;;;;;;;;;;;2197592;67;1145;-69
2022/04/05 15:27:40;;;;;;;;;;;;;;;;;;2199106;60;1239;-69
2022/04/05 15:30:13;;;;;;;;;;;;;;;;;;2197797;67;1176;-69
2022/04/05 15:32:47;;;;;;;;;;;;;;;;;;2197912;59;1987;-69
2022/04/05 15:35:20;;;;;;;;;;;;;;;;;;2199462;59;1448;-69
2022/04/05 15:37:53;;;;;;;;;;;;;;;;;;2198959;59;1620;-70
2022/04/05 15:40:26;;;;;;;;;;;;;;;;;;2197033;67;1212;-70
2022/04/05 15:43:02;;;;;;;;;;;;;;;;;;2199661;67;1098;-70
2022/04/05 15:45:35;;;;;;;;;;;;;;;;;;2199537;59;1378;-69
2022/04/05 15:48:09;;;;;;;;;;;;;;;;;;2201894;59;1518;-70
2022/04/05 15:50:42;;;;;;;;;;;;;;;;;;2198065;67;1092;-69
2022/04/05 15:53:15;;;;;;;;;;;;;;;;;;2194225;67;2459;-69
2022/04/05 15:55:48;;;;;;;;;;;;;;;;;;2203073;59;2638;-70
2022/04/05 15:58:24;;;;;;;;;;;;;;;;;;2194435;59;1614;-69
2022/04/05 16:00:57;;;;;;;;;;;;;;;;;;2200797;59;1202;-70
2022/04/05 16:03:30;;;;;;;;;;;;;;;;;;2202162;59;1702;-69
2022/04/05 16:06:03;;;;;;;;;;;;;;;;;;2200418;67;1066;-69
2022/04/05 16:08:36;;;;;;;;;;;;;;;;;;2195993;59;1729;-69
2022/04/05 16:11:10;;;;;;;;;;;;;;;;;;2195202;67;1080;-69
2022/04/05 16:13:45;;;;;;;;;;;;;;;;;;2195515;59;1929;-70
2022/04/05 16:16:18;;;;;;;;;;;;;;;;;;2196861;67;1188;-69
2022/04/05 16:18:52;;;;;;;;;;;;;;;;;;2195597;59;2160;-69
2022/04/05 16:21:25;;;;;;;;;;;;;;;;;;2198106;67;1123;-69
2022/04/05 16:23:58;;;;;;;;;;;;;;;;;;2196314;67;1319;-69
2022/04/05 16:26:33;;;;;;;;;;;;;;;;;;2195886;59;1683;-69
2022/04/05 16:29:09;;;;;;;;;;;;;;;;;;2198165;67;1223;-70
2022/04/05 16:31:42;;;;;;;;;;;;;;;;;;2191218;67;1150;-69
2022/04/05 16:34:15;;;;;;;;;;;;;;;;;;2198127;59;1922;-69
2022/04/05 16:36:48;;;;;;;;;;;;;;;;;;2195995;67;1182;-70
2022/04/05 16:39:22;;;;;;;;;;;;;;;;;;2196740;59;1796;-69
2022/04/05 16:41:55;;;;;;;;;;;;;;;;;;2204194;59;1089;-70
2022/04/05 16:44:31;;;;;;;;;;;;;;;;;;2195524;67;1307;-69
2022/04/05 16:47:05;;;;;;;;;;;;;;;;;;2196664;59;2082;-69
2022/04/05 16:49:38;;;;;;;;;;;;;;;;;;2195678;59;1258;-69
2022/04/05 16:52:11;;;;;;;;;;;;;;;;;;2196342;67;1141;-70
2022/04/05 16:54:44;;;;;;;;;;;;;;;;;;2197583;59;2553;-69
2022/04/05 16:57:17;;;;;;;;;;;;;;;;;;2198152;59;2163;-69
2022/04/05 16:59:53;;;;;;;;;;;;;;;;;;2196219;59;1647;-69
2022/04/05 17:02:26;;;;;;;;;;;;;;;;;;2196080;67;1173;-69
2022/04/05 17:05:01;;;;;;;;;;;;;;;;;;2198017;67;1076;-70
2022/04/05 17:07:34;;;;;;;;;;;;;;;;;;2196224;60;1249;-69
2022/04/05 17:10:10;;;;;;;;;;;;;;;;;;2191761;67;1416;-69
2022/04/05 17:12:43;;;;;;;;;;;;;;;;;;2196195;59;1930;-69
2022/04/05 17:15:19;;;;;;;;;;;;;;;;;;2196081;59;1145;-69
2022/04/05 17:17:53;;;;;;;;;;;;;;;;;;2196283;59;2012;-69
2022/04/05 17:20:26;;;;;;;;;;;;;;;;;;2195535;59;1931;-70
2022/04/05 17:23:00;;;;;;;;;;;;;;;;;;2197775;67;1061;-69
2022/04/05 17:25:33;;;;;;;;;;;;;;;;;;2197133;67;1231;-69
2022/04/05 17:28:07;;;;;;;;;;;;;;;;;;2195798;60;1305;-69
2022/04/05 17:30:44;;;;;;;;;;;;;;;;;;2195436;59;1259;-70
2022/04/05 17:33:17;;;;;;;;;;;;;;;;;;2195789;67;1940;-69
2022/04/05 17:35:50;;;;;;;;;;;;;;;;;;2196897;59;1053;-70
2022/04/05 17:38:24;;;;;;;;;;;;;;;;;;2196870;59;1422;-70
2022/04/05 17:40:57;;;;;;;;;;;;;;;;;;2195203;67;1190;-69
2022/04/05 17:43:33;;;;;;;;;;;;;;;;;;2195590;67;1200;-69
2022/04/05 17:46:08;;;;;;;;;;;;;;;;;;2195993;59;1043;-69
2022/04/05 17:48:41;;;;;;;;;;;;;;;;;;2194798;59;1306;-69
2022/04/05 17:51:15;;;;;;;;;;;;;;;;;;2198672;59;1186;-69
2022/04/05 17:53:48;;;;;;;;;;;;;;;;;;2199168;59;1984;-69
2022/04/05 17:56:21;;;;;;;;;;;;;;;;;;2198577;59;2410;-69